createdAt,value
2019-03-27T00:00:24.324Z,21.53
2019-03-27T00:02:54.611Z,17.50
2019-03-27T00:05:25.883Z,18.40
2019-03-27T00:07:57.122Z,18.83
2019-03-27T00:10:27.351Z,17.27
2019-03-27T00:12:57.704Z,16.23
2019-03-27T00:15:27.959Z,12.87
2019-03-27T00:17:58.199Z,20.33
2019-03-27T00:20:28.543Z,17.73
2019-03-27T00:22:58.794Z,12.77
2019-03-27T00:25:29.047Z,12.20
2019-03-27T00:27:59.338Z,17.63
2019-03-27T00:30:29.668Z,16.07
2019-03-27T00:32:59.865Z,14.53
2019-03-27T00:35:30.136Z,10.13
2019-03-27T00:38:00.550Z,15.90
2019-03-27T00:40:30.896Z,16.60
2019-03-27T00:43:01.470Z,12.63
2019-03-27T00:45:31.703Z,21.00
2019-03-27T00:48:02.040Z,15.73
2019-03-27T00:50:32.322Z,16.77
2019-03-27T00:53:02.555Z,14.67
2019-03-27T00:55:32.881Z,15.77
2019-03-27T00:58:03.059Z,19.00
2019-03-27T01:01:14.237Z,10.77
2019-03-27T01:03:44.651Z,13.80
2019-03-27T01:06:14.995Z,14.27
2019-03-27T01:08:45.326Z,14.10
2019-03-27T01:11:15.571Z,18.13
2019-03-27T01:13:45.779Z,15.93
2019-03-27T01:16:16.012Z,12.97
2019-03-27T01:18:46.461Z,15.13
2019-03-27T01:21:16.655Z,14.57
2019-03-27T01:23:46.869Z,14.67
2019-03-27T01:26:17.179Z,10.40
2019-03-27T01:28:47.452Z,19.00
2019-03-27T01:31:17.671Z,15.90
2019-03-27T01:33:47.918Z,13.23
2019-03-27T01:36:18.234Z,18.50
2019-03-27T01:38:48.437Z,15.27
2019-03-27T01:41:18.622Z,15.10
2019-03-27T01:43:48.859Z,15.50
2019-03-27T01:46:20.235Z,15.77
2019-03-27T01:48:50.463Z,17.70
2019-03-27T01:51:20.660Z,16.83
2019-03-27T01:53:50.901Z,19.53
2019-03-27T01:56:21.099Z,20.43
2019-03-27T01:58:51.324Z,12.27
2019-03-27T02:01:21.563Z,24.63
2019-03-27T02:03:51.775Z,16.10
2019-03-27T02:06:22.347Z,22.93
2019-03-27T02:08:52.619Z,21.20
2019-03-27T02:11:22.828Z,16.37
2019-03-27T02:13:53.244Z,20.37
2019-03-27T02:16:23.491Z,15.73
2019-03-27T02:18:53.731Z,15.00
2019-03-27T02:21:24.461Z,16.83
2019-03-27T02:23:54.667Z,21.17
2019-03-27T02:26:24.946Z,13.57
2019-03-27T02:28:56.201Z,13.33
2019-03-27T02:31:26.452Z,19.37
2019-03-27T02:33:56.699Z,20.60
2019-03-27T02:36:26.896Z,22.80
2019-03-27T02:38:57.204Z,18.37
2019-03-27T02:41:27.494Z,23.97
2019-03-27T02:43:57.679Z,17.87
2019-03-27T02:46:27.902Z,11.70
2019-03-27T02:48:58.137Z,13.17
2019-03-27T02:51:28.330Z,13.97
2019-03-27T02:53:58.586Z,12.30
2019-03-27T02:56:28.814Z,17.20
2019-03-27T02:58:59.047Z,13.73
2019-03-27T03:01:29.391Z,13.43
2019-03-27T03:03:59.675Z,15.07
2019-03-27T03:06:29.867Z,22.03
2019-03-27T03:09:00.108Z,15.40
2019-03-27T03:11:30.576Z,19.17
2019-03-27T03:14:00.861Z,15.93
2019-03-27T03:16:42.191Z,16.67
2019-03-27T03:19:02.995Z,18.17
2019-03-27T03:21:33.232Z,11.47
2019-03-27T03:24:03.447Z,17.03
2019-03-27T03:26:33.680Z,18.20
2019-03-27T03:29:03.920Z,17.13
2019-03-27T03:31:34.176Z,19.13
2019-03-27T03:34:05.391Z,14.80
2019-03-27T03:36:35.720Z,19.13
2019-03-27T03:39:07.072Z,11.23
2019-03-27T03:41:37.364Z,22.30
2019-03-27T03:44:07.630Z,24.00
2019-03-27T03:46:37.829Z,18.67
2019-03-27T03:49:08.086Z,16.97
2019-03-27T03:51:38.351Z,17.70
2019-03-27T03:54:08.861Z,18.47
2019-03-27T03:56:42.335Z,22.37
2019-03-27T03:59:13.529Z,14.77
2019-03-27T04:01:45.074Z,17.20
2019-03-27T04:04:17.186Z,15.77
2019-03-27T04:06:47.376Z,17.87
2019-03-27T04:09:17.639Z,17.20
2019-03-27T04:11:47.845Z,23.30
2019-03-27T04:14:18.177Z,16.30
2019-03-27T04:16:48.391Z,21.20
2019-03-27T04:19:18.722Z,13.77
2019-03-27T04:21:49.235Z,16.47
2019-03-27T04:24:19.457Z,12.17
2019-03-27T04:26:49.674Z,21.37
2019-03-27T04:29:20.056Z,15.90
2019-03-27T04:31:50.212Z,18.80
2019-03-27T04:34:20.442Z,19.77
2019-03-27T04:36:50.647Z,13.97
2019-03-27T04:39:20.918Z,14.70
2019-03-27T04:41:51.286Z,20.50
2019-03-27T04:44:21.547Z,12.40
2019-03-27T04:46:51.745Z,19.03
2019-03-27T04:49:21.983Z,20.77
2019-03-27T04:51:52.219Z,29.07
2019-03-27T04:54:22.394Z,12.50
2019-03-27T04:56:52.762Z,18.13
2019-03-27T04:59:23.050Z,13.93
2019-03-27T05:01:53.307Z,13.87
2019-03-27T05:04:24.194Z,11.57
2019-03-27T05:06:54.533Z,13.67
2019-03-27T05:09:25.123Z,12.37
2019-03-27T05:11:55.390Z,18.03
2019-03-27T05:14:25.622Z,16.67
2019-03-27T05:16:55.862Z,10.13
2019-03-27T05:19:26.090Z,15.97
2019-03-27T05:21:59.389Z,11.73
2019-03-27T05:24:29.590Z,9.90
2019-03-27T05:26:59.928Z,12.20
2019-03-27T05:29:30.174Z,13.40
2019-03-27T05:32:00.348Z,11.27
2019-03-27T05:34:30.511Z,14.20
2019-03-27T05:37:00.703Z,16.87
2019-03-27T05:39:30.965Z,13.80
2019-03-27T05:42:01.143Z,12.77
2019-03-27T05:44:31.316Z,16.07
2019-03-27T05:47:01.536Z,19.33
2019-03-27T05:49:31.795Z,11.57
2019-03-27T05:52:01.980Z,12.73
2019-03-27T05:54:32.227Z,14.83
2019-03-27T05:57:02.427Z,11.63
2019-03-27T05:59:32.582Z,16.40
2019-03-27T06:02:02.763Z,12.53
2019-03-27T06:04:33.192Z,15.73
2019-03-27T06:07:03.368Z,20.67
2019-03-27T06:09:33.544Z,13.40
2019-03-27T06:12:03.759Z,13.83
2019-03-27T06:14:33.927Z,21.60
2019-03-27T06:17:04.139Z,10.07
2019-03-27T06:19:34.319Z,17.47
2019-03-27T06:22:05.708Z,17.30
2019-03-27T06:24:35.876Z,17.80
2019-03-27T06:27:06.075Z,11.57
2019-03-27T06:29:36.255Z,15.90
2019-03-27T06:32:06.459Z,19.47
2019-03-27T06:34:36.635Z,13.87
2019-03-27T06:37:06.831Z,19.23
2019-03-27T06:39:37.000Z,9.37
2019-03-27T06:42:07.193Z,15.47
2019-03-27T06:44:37.343Z,19.60
2019-03-27T06:47:07.548Z,19.03
2019-03-27T06:49:37.740Z,14.00
2019-03-27T06:52:08.035Z,17.40
2019-03-27T06:54:38.220Z,18.30
2019-03-27T06:57:08.451Z,14.13
2019-03-27T06:59:38.631Z,15.83
2019-03-27T07:02:08.883Z,15.00
2019-03-27T07:04:39.059Z,13.27
2019-03-27T07:07:09.230Z,20.93
2019-03-27T07:09:42.358Z,9.30
2019-03-27T07:12:20.904Z,9.77
2019-03-27T07:14:43.284Z,14.40
2019-03-27T07:17:13.877Z,8.40
2019-03-27T07:19:44.135Z,13.67
2019-03-27T07:22:14.375Z,11.30
2019-03-27T07:24:44.547Z,14.33
2019-03-27T07:27:14.840Z,11.07
2019-03-27T07:29:45.012Z,14.53
2019-03-27T07:32:15.218Z,17.47
2019-03-27T07:34:45.415Z,10.20
2019-03-27T07:37:15.579Z,10.17
2019-03-27T07:39:45.798Z,12.33
2019-03-27T07:42:16.035Z,10.57
2019-03-27T07:44:46.296Z,11.83
2019-03-27T07:47:16.787Z,8.60
2019-03-27T07:49:46.988Z,9.60
2019-03-27T07:52:17.155Z,9.60
2019-03-27T07:54:47.402Z,14.23
2019-03-27T07:57:17.572Z,10.43
2019-03-27T07:59:47.731Z,9.20
2019-03-27T08:02:17.899Z,9.73
2019-03-27T08:04:48.089Z,12.87
2019-03-27T08:07:26.770Z,16.80
2019-03-27T08:09:50.179Z,12.43
2019-03-27T08:12:21.425Z,8.87
2019-03-27T08:14:52.029Z,13.37
2019-03-27T08:17:22.190Z,11.80
2019-03-27T08:19:52.397Z,9.03
2019-03-27T08:22:22.627Z,8.17
2019-03-27T08:24:52.839Z,14.30
2019-03-27T08:27:23.212Z,10.10
2019-03-27T08:29:53.504Z,16.43
2019-03-27T08:32:23.763Z,11.43
2019-03-27T08:34:53.928Z,11.03
2019-03-27T08:37:24.103Z,6.80
2019-03-27T08:39:54.374Z,8.40
2019-03-27T08:42:24.611Z,12.33
2019-03-27T08:44:54.842Z,15.03
2019-03-27T08:47:25.043Z,12.37
2019-03-27T08:49:55.215Z,6.30
2019-03-27T08:52:25.415Z,7.13
2019-03-27T08:54:55.640Z,9.53
2019-03-27T08:57:25.856Z,12.80
2019-03-27T08:59:56.040Z,12.70
2019-03-27T09:02:26.263Z,7.93
2019-03-27T09:04:57.468Z,9.00
2019-03-27T09:07:27.642Z,10.33
2019-03-27T09:09:57.818Z,6.47
2019-03-27T09:12:28.073Z,7.10
2019-03-27T09:14:58.255Z,9.40
2019-03-27T09:17:28.439Z,9.20
2019-03-27T09:19:58.602Z,4.43
2019-03-27T09:22:28.847Z,12.33
2019-03-27T09:24:59.317Z,10.30
2019-03-27T09:27:29.502Z,7.07
2019-03-27T09:29:59.775Z,7.70
2019-03-27T09:32:29.975Z,9.33
2019-03-27T09:35:00.357Z,11.33
2019-03-27T09:37:30.654Z,11.30
2019-03-27T09:40:00.888Z,6.63
2019-03-27T09:42:32.042Z,11.27
2019-03-27T09:45:02.213Z,10.07
2019-03-27T09:47:34.599Z,11.00
2019-03-27T09:50:04.539Z,8.80
2019-03-27T09:52:34.716Z,11.43
2019-03-27T09:55:06.003Z,4.97
2019-03-27T09:57:36.183Z,8.03
2019-03-27T10:00:08.028Z,10.00
2019-03-27T10:02:38.279Z,7.83
2019-03-27T10:05:08.712Z,10.40
2019-03-27T10:07:38.927Z,9.57
2019-03-27T10:10:09.281Z,14.30
2019-03-27T10:12:39.471Z,8.10
2019-03-27T10:15:10.173Z,15.83
2019-03-27T10:17:40.381Z,10.07
2019-03-27T10:20:13.567Z,9.80
2019-03-27T10:22:42.759Z,9.87
2019-03-27T10:25:13.212Z,15.70
2019-03-27T10:27:43.410Z,9.53
2019-03-27T10:30:13.883Z,6.90
2019-03-27T10:32:44.058Z,9.37
2019-03-27T10:35:14.419Z,10.70
2019-03-27T10:37:44.604Z,9.13
2019-03-27T10:40:14.973Z,9.30
2019-03-27T10:42:45.172Z,8.90
2019-03-27T10:45:15.528Z,9.53
2019-03-27T10:47:45.708Z,10.97
2019-03-27T10:50:17.978Z,12.83
2019-03-27T10:52:47.988Z,11.40
2019-03-27T10:55:18.257Z,13.70
2019-03-27T10:57:48.507Z,14.50
2019-03-27T11:00:18.755Z,13.63
2019-03-27T11:02:50.585Z,11.77
2019-03-27T11:05:20.838Z,11.90
2019-03-27T11:07:51.011Z,12.43
2019-03-27T11:10:21.330Z,8.57
2019-03-27T11:12:51.505Z,7.27
2019-03-27T11:15:21.851Z,7.63
2019-03-27T11:17:52.039Z,12.40
2019-03-27T11:20:30.885Z,7.20
2019-03-27T11:22:56.582Z,9.00
2019-03-27T11:25:26.796Z,6.73
2019-03-27T11:27:57.059Z,7.93
2019-03-27T11:30:38.533Z,7.10
2019-03-27T11:33:09.373Z,8.83
2019-03-27T11:35:41.019Z,5.47
2019-03-27T11:38:11.661Z,6.60
2019-03-27T11:40:41.853Z,10.00
2019-03-27T11:43:12.016Z,9.70
2019-03-27T11:45:42.192Z,7.23
2019-03-27T11:48:12.384Z,7.70
2019-03-27T11:50:45.334Z,5.70
2019-03-27T11:53:17.263Z,11.20
2019-03-27T11:55:47.434Z,6.30
2019-03-27T11:58:17.602Z,9.53
2019-03-27T12:00:54.909Z,6.33
2019-03-27T12:03:21.018Z,6.50
2019-03-27T12:05:51.260Z,6.80
2019-03-27T12:08:21.431Z,10.30
2019-03-27T12:10:51.605Z,7.03
2019-03-27T12:13:22.187Z,6.57
2019-03-27T12:15:52.443Z,8.10
2019-03-27T12:18:22.691Z,5.43
2019-03-27T12:20:59.412Z,4.97
2019-03-27T12:23:25.782Z,8.33
2019-03-27T12:25:55.952Z,6.53
2019-03-27T12:28:26.123Z,10.50
2019-03-27T12:30:56.520Z,13.10
2019-03-27T12:33:26.838Z,7.17
2019-03-27T12:35:57.119Z,10.00
2019-03-27T12:38:27.392Z,8.10
2019-03-27T12:40:57.586Z,8.20
2019-03-27T12:43:27.750Z,6.80
2019-03-27T12:45:58.115Z,9.70
2019-03-27T12:48:28.338Z,8.17
2019-03-27T12:51:11.742Z,9.03
2019-03-27T12:53:30.645Z,11.67
2019-03-27T12:56:00.835Z,7.73
2019-03-27T12:58:31.087Z,15.60
2019-03-27T13:01:01.277Z,8.70
2019-03-27T13:03:31.487Z,6.97
2019-03-27T13:06:01.719Z,10.60
2019-03-27T13:08:32.056Z,11.47
2019-03-27T13:11:02.391Z,7.00
2019-03-27T13:13:32.688Z,11.67
2019-03-27T13:16:03.019Z,12.67
2019-03-27T13:18:33.287Z,9.63
2019-03-27T13:21:03.532Z,11.68
2019-03-27T13:23:33.811Z,9.83
2019-03-27T13:26:04.091Z,11.45
2019-03-27T13:28:47.910Z,8.98
2019-03-27T13:31:06.303Z,11.80
2019-03-27T13:33:36.572Z,11.17
2019-03-27T13:36:07.909Z,9.90
2019-03-27T13:38:38.271Z,12.55
2019-03-27T13:41:08.434Z,9.17
2019-03-27T13:43:38.608Z,9.60
2019-03-27T13:46:08.766Z,10.87
2019-03-27T13:48:38.991Z,16.03
2019-03-27T13:51:09.172Z,11.63
2019-03-27T13:53:39.426Z,14.80
2019-03-27T13:56:09.641Z,15.07
2019-03-27T13:58:39.900Z,13.22
2019-03-27T14:01:12.803Z,13.03
2019-03-27T14:03:41.926Z,14.50
2019-03-27T14:06:12.090Z,12.15
2019-03-27T14:08:42.263Z,15.07
2019-03-27T14:11:12.504Z,14.33
2019-03-27T14:13:43.512Z,13.93
2019-03-27T14:16:13.893Z,12.17
2019-03-27T14:18:44.095Z,11.33
2019-03-27T14:21:14.343Z,10.93
2019-03-27T14:23:44.651Z,13.80
2019-03-27T14:26:14.916Z,17.57
2019-03-27T14:28:45.144Z,21.00
2019-03-27T14:31:15.406Z,15.17
2019-03-27T14:33:45.588Z,20.00
2019-03-27T14:36:15.775Z,18.23
2019-03-27T14:38:45.941Z,18.90
2019-03-27T14:41:16.151Z,19.10
2019-03-27T14:43:46.327Z,15.07
2019-03-27T14:46:16.520Z,19.77
2019-03-27T14:48:46.682Z,18.10
2019-03-27T14:51:19.361Z,18.47
2019-03-27T14:53:48.856Z,18.53
2019-03-27T14:56:19.023Z,17.90
2019-03-27T14:58:49.783Z,13.03
2019-03-27T15:01:20.170Z,18.87
2019-03-27T15:03:50.347Z,12.53
2019-03-27T15:06:20.752Z,10.27
2019-03-27T15:08:50.952Z,11.30
2019-03-27T15:11:21.293Z,10.18
2019-03-27T15:13:51.472Z,10.80
2019-03-27T15:16:21.740Z,10.13
2019-03-27T15:18:52.699Z,9.43
2019-03-27T15:21:23.087Z,8.17
2019-03-27T15:23:54.287Z,10.23
2019-03-27T15:26:24.496Z,9.73
2019-03-27T15:28:54.725Z,11.77
2019-03-27T15:31:24.947Z,11.57
2019-03-27T15:33:55.243Z,12.83
2019-03-27T15:36:25.433Z,5.47
2019-03-27T15:38:55.618Z,7.93
2019-03-27T15:41:25.894Z,10.10
2019-03-27T15:43:56.066Z,7.30
2019-03-27T15:46:26.311Z,8.27
2019-03-27T15:48:56.557Z,11.57
2019-03-27T15:51:26.987Z,8.43
2019-03-27T15:53:57.196Z,9.93
2019-03-27T15:56:27.543Z,9.67
2019-03-27T15:58:57.740Z,10.33
2019-03-27T16:01:28.123Z,9.73
2019-03-27T16:03:58.275Z,8.37
2019-03-27T16:06:28.483Z,11.93
2019-03-27T16:08:58.750Z,11.90
2019-03-27T16:11:28.950Z,8.53
2019-03-27T16:13:59.231Z,9.43
2019-03-27T16:16:29.489Z,9.57
2019-03-27T16:18:59.783Z,11.20
2019-03-27T16:21:30.104Z,13.03
2019-03-27T16:24:06.417Z,11.03
2019-03-27T16:26:32.292Z,7.37
2019-03-27T16:29:02.541Z,9.30
2019-03-27T16:31:32.799Z,12.40
2019-03-27T16:34:03.083Z,11.00
2019-03-27T16:36:33.284Z,7.37
2019-03-27T16:39:04.589Z,9.90
2019-03-27T16:41:35.338Z,10.80
2019-03-27T16:44:06.024Z,10.17
2019-03-27T16:46:36.382Z,6.63
2019-03-27T16:49:07.682Z,9.33
2019-03-27T16:51:37.891Z,9.50
2019-03-27T16:54:08.147Z,7.00
2019-03-27T16:56:38.323Z,8.47
2019-03-27T16:59:08.534Z,8.83
2019-03-27T17:01:38.718Z,10.47
2019-03-27T17:04:09.900Z,10.15
2019-03-27T17:06:40.126Z,18.17
2019-03-27T17:09:10.611Z,7.17
2019-03-27T17:11:40.967Z,14.43
2019-03-27T17:14:11.282Z,10.50
2019-03-27T17:16:41.531Z,8.17
2019-03-27T17:19:11.814Z,7.63
2019-03-27T17:21:41.985Z,11.00
2019-03-27T17:24:12.215Z,7.07
2019-03-27T17:26:43.552Z,11.50
2019-03-27T17:29:13.856Z,7.33
2019-03-27T17:31:44.100Z,8.40
2019-03-27T17:34:14.339Z,10.30
2019-03-27T17:36:44.541Z,8.77
2019-03-27T17:39:14.783Z,7.63
2019-03-27T17:41:44.972Z,9.67
2019-03-27T17:44:19.471Z,8.70
2019-03-27T17:46:50.340Z,9.50
2019-03-27T17:49:20.843Z,8.40
2019-03-27T17:51:51.112Z,12.07
2019-03-27T17:54:21.451Z,6.53
2019-03-27T17:56:51.739Z,13.37
2019-03-27T17:59:21.914Z,9.43
2019-03-27T18:01:52.171Z,11.37
2019-03-27T18:04:22.355Z,11.33
2019-03-27T18:06:52.616Z,14.07
2019-03-27T18:09:22.862Z,13.27
2019-03-27T18:11:53.352Z,11.97
2019-03-27T18:14:23.628Z,12.70
2019-03-27T18:16:53.815Z,13.67
2019-03-27T18:19:24.036Z,11.43
2019-03-27T18:22:07.074Z,10.90
2019-03-27T18:24:27.104Z,9.83
2019-03-27T18:26:57.283Z,9.10
2019-03-27T18:29:27.562Z,10.83
2019-03-27T18:31:57.763Z,12.53
2019-03-27T18:34:28.153Z,12.10
2019-03-27T18:36:58.520Z,12.23
2019-03-27T18:39:28.767Z,10.07
2019-03-27T18:41:59.008Z,12.03
2019-03-27T18:44:29.194Z,17.53
2019-03-27T18:46:59.370Z,12.33
2019-03-27T18:49:29.633Z,13.03
2019-03-27T18:51:59.876Z,13.83
2019-03-27T18:54:31.311Z,13.97
2019-03-27T18:57:01.547Z,13.13
2019-03-27T18:59:31.791Z,10.77
2019-03-27T19:02:02.294Z,12.43
2019-03-27T19:04:32.484Z,12.10
2019-03-27T19:07:02.744Z,14.93
2019-03-27T19:09:34.001Z,12.77
2019-03-27T19:12:04.280Z,12.57
2019-03-27T19:14:34.508Z,10.40
2019-03-27T19:17:05.466Z,11.00
2019-03-27T19:19:35.680Z,12.20
2019-03-27T19:22:05.994Z,10.77
2019-03-27T19:24:36.418Z,10.57
2019-03-27T19:27:06.693Z,16.73
2019-03-27T19:29:36.991Z,11.90
2019-03-27T19:32:07.172Z,13.37
2019-03-27T19:34:37.343Z,13.17
2019-03-27T19:37:07.519Z,14.00
2019-03-27T19:39:37.795Z,12.70
2019-03-27T19:42:08.048Z,9.70
2019-03-27T19:44:38.372Z,10.57
2019-03-27T19:47:08.720Z,14.47
2019-03-27T19:49:38.921Z,14.40
2019-03-27T19:52:09.240Z,15.67
2019-03-27T19:54:39.533Z,10.23
2019-03-27T19:57:10.755Z,10.40
2019-03-27T19:59:41.028Z,17.30
2019-03-27T20:02:11.548Z,10.83
2019-03-27T20:04:41.804Z,9.47
2019-03-27T20:07:12.017Z,11.23
2019-03-27T20:09:42.520Z,12.40
2019-03-27T20:12:12.720Z,13.27
2019-03-27T20:14:43.083Z,16.93
2019-03-27T20:17:14.540Z,10.67
2019-03-27T20:19:44.702Z,16.63
2019-03-27T20:22:14.928Z,12.10
2019-03-27T20:24:45.130Z,14.83
2019-03-27T20:27:15.356Z,16.90
2019-03-27T20:29:46.633Z,21.53
2019-03-27T20:32:17.119Z,22.90
2019-03-27T20:34:47.407Z,14.43
2019-03-27T20:37:17.697Z,14.13
2019-03-27T20:39:47.912Z,16.20
2019-03-27T20:42:18.116Z,24.70
2019-03-27T20:44:48.468Z,18.93
2019-03-27T20:47:18.660Z,14.90
2019-03-27T20:49:48.908Z,18.37
2019-03-27T20:52:19.153Z,25.97
2019-03-27T20:54:54.907Z,15.23
2019-03-27T20:57:21.280Z,17.57
2019-03-27T20:59:51.554Z,19.67
2019-03-27T21:02:21.866Z,21.20
2019-03-27T21:04:52.173Z,21.27
2019-03-27T21:07:24.551Z,20.80
2019-03-27T21:09:54.315Z,21.13
2019-03-27T21:12:24.611Z,17.07
2019-03-27T21:14:54.904Z,15.33
2019-03-27T21:17:25.150Z,23.23
2019-03-27T21:19:55.324Z,17.37
2019-03-27T21:22:25.532Z,17.70
2019-03-27T21:25:07.996Z,21.57
2019-03-27T21:27:27.735Z,20.03
2019-03-27T21:29:58.010Z,22.20
2019-03-27T21:32:28.211Z,16.30
2019-03-27T21:34:59.576Z,15.10
2019-03-27T21:37:29.752Z,24.57
2019-03-27T21:39:59.924Z,21.30
2019-03-27T21:42:30.100Z,21.67
2019-03-27T21:45:00.385Z,18.73
2019-03-27T21:47:30.844Z,21.07
2019-03-27T21:50:01.072Z,20.03
2019-03-27T21:52:31.408Z,17.13
2019-03-27T21:55:02.612Z,15.60
2019-03-27T21:57:33.904Z,20.23
2019-03-27T22:00:05.151Z,20.43
2019-03-27T22:02:35.387Z,18.37
2019-03-27T22:05:06.844Z,17.27
2019-03-27T22:07:37.000Z,21.73
2019-03-27T22:10:08.055Z,26.57
2019-03-27T22:12:38.750Z,13.73
2019-03-27T22:15:09.434Z,19.03
2019-03-27T22:17:39.616Z,21.20
2019-03-27T22:20:09.827Z,15.23
2019-03-27T22:22:39.986Z,14.70
2019-03-27T22:25:10.350Z,19.03
2019-03-27T22:27:40.546Z,21.17
2019-03-27T22:30:11.395Z,16.20
2019-03-27T22:32:41.571Z,23.70
2019-03-27T22:35:12.879Z,20.90
2019-03-27T22:37:43.128Z,20.07
2019-03-27T22:40:13.465Z,18.60
2019-03-27T22:42:43.661Z,17.40
2019-03-27T22:45:14.049Z,14.70
2019-03-27T22:47:44.249Z,15.40
2019-03-27T22:50:14.520Z,20.37
2019-03-27T22:52:44.694Z,18.23
2019-03-27T22:55:14.889Z,16.93
2019-03-27T22:57:45.079Z,20.23
2019-03-27T23:00:15.907Z,16.50
2019-03-27T23:02:47.707Z,18.17
2019-03-27T23:05:17.996Z,21.60
2019-03-27T23:07:48.162Z,19.77
2019-03-27T23:10:18.427Z,20.90
2019-03-27T23:12:48.590Z,21.00
2019-03-27T23:15:18.795Z,25.03
2019-03-27T23:17:50.045Z,14.03
2019-03-27T23:20:20.221Z,20.77
2019-03-27T23:22:50.441Z,18.67
2019-03-27T23:25:20.603Z,21.67
2019-03-27T23:27:50.798Z,19.60
2019-03-27T23:30:20.991Z,24.43
2019-03-27T23:32:51.252Z,16.17
2019-03-27T23:35:21.465Z,16.13
2019-03-27T23:37:51.736Z,21.73
2019-03-27T23:40:21.928Z,13.90
2019-03-27T23:42:52.102Z,17.60
2019-03-27T23:45:22.348Z,20.77
2019-03-27T23:47:52.524Z,16.83
2019-03-27T23:50:22.701Z,17.03
2019-03-27T23:52:52.892Z,17.57
2019-03-27T23:55:23.103Z,23.93
2019-03-27T23:57:53.555Z,20.40
